sensor_id;sensor_type;location;lat;lon;timestamp;P1;durP1;ratioP1;P2;durP2;ratioP2
50803;SDS011;37205;51.434;6.756;2022-10-31T00:01:34;23.45;;;14.40;;
50803;SDS011;37205;51.434;6.756;2022-10-31T00:04:01;24.75;;;14.10;;
50803;SDS011;37205;51.434;6.756;2022-10-31T00:06:27;22.67;;;14.15;;
50803;SDS011;37205;51.434;6.756;2022-10-31T00:08:54;21.95;;;14.32;;
50803;SDS011;37205;51.434;6.756;2022-10-31T00:11:28;22.88;;;13.75;;
50803;SDS011;37205;51.434;6.756;2022-10-31T00:13:54;21.15;;;13.80;;
50803;SDS011;37205;51.434;6.756;2022-10-31T00:16:20;23.80;;;14.50;;
50803;SDS011;37205;51.434;6.756;2022-10-31T00:18:48;21.40;;;14.00;;
50803;SDS011;37205;51.434;6.756;2022-10-31T00:21:14;21.98;;;13.32;;
50803;SDS011;37205;51.434;6.756;2022-10-31T00:23:40;21.10;;;13.40;;
50803;SDS011;37205;51.434;6.756;2022-10-31T00:26:06;21.83;;;14.38;;
50803;SDS011;37205;51.434;6.756;2022-10-31T00:28:32;24.27;;;13.80;;
50803;SDS011;37205;51.434;6.756;2022-10-31T00:30:58;21.85;;;14.35;;
50803;SDS011;37205;51.434;6.756;2022-10-31T00:33:28;24.75;;;14.68;;
50803;SDS011;37205;51.434;6.756;2022-10-31T00:35:54;22.77;;;13.60;;
50803;SDS011;37205;51.434;6.756;2022-10-31T00:38:20;22.10;;;15.07;;
50803;SDS011;37205;51.434;6.756;2022-10-31T00:40:46;20.38;;;13.88;;
50803;SDS011;37205;51.434;6.756;2022-10-31T00:43:11;20.52;;;14.43;;
50803;SDS011;37205;51.434;6.756;2022-10-31T00:45:37;19.65;;;14.43;;
50803;SDS011;37205;51.434;6.756;2022-10-31T00:48:03;21.25;;;14.30;;
50803;SDS011;37205;51.434;6.756;2022-10-31T00:50:29;20.73;;;13.70;;
50803;SDS011;37205;51.434;6.756;2022-10-31T00:52:55;21.13;;;14.73;;
50803;SDS011;37205;51.434;6.756;2022-10-31T00:55:21;24.10;;;14.98;;
50803;SDS011;37205;51.434;6.756;2022-10-31T00:57:47;24.23;;;13.35;;
50803;SDS011;37205;51.434;6.756;2022-10-31T01:00:13;21.42;;;13.90;;
50803;SDS011;37205;51.434;6.756;2022-10-31T01:02:39;19.88;;;12.85;;
50803;SDS011;37205;51.434;6.756;2022-10-31T01:05:04;21.48;;;13.50;;
50803;SDS011;37205;51.434;6.756;2022-10-31T01:07:30;22.15;;;13.30;;
50803;SDS011;37205;51.434;6.756;2022-10-31T01:09:56;17.17;;;13.07;;
50803;SDS011;37205;51.434;6.756;2022-10-31T01:12:21;16.88;;;13.02;;
50803;SDS011;37205;51.434;6.756;2022-10-31T01:14:47;19.17;;;12.95;;
50803;SDS011;37205;51.434;6.756;2022-10-31T01:17:13;18.08;;;12.07;;
50803;SDS011;37205;51.434;6.756;2022-10-31T01:19:39;20.83;;;12.70;;
50803;SDS011;37205;51.434;6.756;2022-10-31T01:22:04;19.38;;;12.88;;
50803;SDS011;37205;51.434;6.756;2022-10-31T01:24:31;19.50;;;12.10;;
50803;SDS011;37205;51.434;6.756;2022-10-31T01:26:57;18.67;;;11.02;;
50803;SDS011;37205;51.434;6.756;2022-10-31T01:29:23;19.60;;;11.45;;
50803;SDS011;37205;51.434;6.756;2022-10-31T01:31:48;18.35;;;10.98;;
50803;SDS011;37205;51.434;6.756;2022-10-31T01:34:14;14.90;;;10.25;;
50803;SDS011;37205;51.434;6.756;2022-10-31T01:36:41;16.30;;;10.60;;
50803;SDS011;37205;51.434;6.756;2022-10-31T01:39:11;17.15;;;10.15;;
50803;SDS011;37205;51.434;6.756;2022-10-31T01:41:44;17.83;;;11.55;;
50803;SDS011;37205;51.434;6.756;2022-10-31T01:49:11;16.60;;;10.45;;
50803;SDS011;37205;51.434;6.756;2022-10-31T01:51:50;15.50;;;10.25;;
50803;SDS011;37205;51.434;6.756;2022-10-31T01:54:24;14.27;;;9.35;;
50803;SDS011;37205;51.434;6.756;2022-10-31T01:56:54;15.02;;;9.98;;
50803;SDS011;37205;51.434;6.756;2022-10-31T01:59:21;16.98;;;10.27;;
50803;SDS011;37205;51.434;6.756;2022-10-31T02:01:48;18.27;;;10.82;;
50803;SDS011;37205;51.434;6.756;2022-10-31T02:04:16;17.35;;;10.25;;
50803;SDS011;37205;51.434;6.756;2022-10-31T02:06:45;16.17;;;10.90;;
50803;SDS011;37205;51.434;6.756;2022-10-31T02:11:42;16.80;;;10.48;;
50803;SDS011;37205;51.434;6.756;2022-10-31T02:14:09;18.48;;;11.23;;
50803;SDS011;37205;51.434;6.756;2022-10-31T02:16:35;17.67;;;10.88;;
50803;SDS011;37205;51.434;6.756;2022-10-31T02:19:00;17.50;;;10.20;;
50803;SDS011;37205;51.434;6.756;2022-10-31T02:21:31;16.63;;;10.77;;
50803;SDS011;37205;51.434;6.756;2022-10-31T02:37:25;15.98;;;11.05;;
50803;SDS011;37205;51.434;6.756;2022-10-31T02:40:10;18.45;;;11.38;;
50803;SDS011;37205;51.434;6.756;2022-10-31T02:45:48;20.05;;;10.25;;
50803;SDS011;37205;51.434;6.756;2022-10-31T02:48:33;16.50;;;10.82;;
50803;SDS011;37205;51.434;6.756;2022-10-31T02:51:02;17.33;;;10.98;;
50803;SDS011;37205;51.434;6.756;2022-10-31T02:53:35;16.20;;;10.68;;
50803;SDS011;37205;51.434;6.756;2022-10-31T02:58:31;14.45;;;10.40;;
50803;SDS011;37205;51.434;6.756;2022-10-31T03:12:40;19.48;;;10.90;;
50803;SDS011;37205;51.434;6.756;2022-10-31T03:15:32;19.45;;;11.05;;
50803;SDS011;37205;51.434;6.756;2022-10-31T03:18:08;17.95;;;11.15;;
50803;SDS011;37205;51.434;6.756;2022-10-31T03:20:42;15.70;;;11.30;;
50803;SDS011;37205;51.434;6.756;2022-10-31T03:23:14;17.20;;;11.20;;
50803;SDS011;37205;51.434;6.756;2022-10-31T03:25:41;18.52;;;11.07;;
50803;SDS011;37205;51.434;6.756;2022-10-31T03:28:08;21.15;;;11.30;;
50803;SDS011;37205;51.434;6.756;2022-10-31T03:30:37;18.73;;;11.60;;
50803;SDS011;37205;51.434;6.756;2022-10-31T03:33:07;15.73;;;11.48;;
50803;SDS011;37205;51.434;6.756;2022-10-31T03:35:41;18.88;;;12.35;;
50803;SDS011;37205;51.434;6.756;2022-10-31T03:38:09;18.70;;;11.95;;
50803;SDS011;37205;51.434;6.756;2022-10-31T03:40:36;17.83;;;10.50;;
50803;SDS011;37205;51.434;6.756;2022-10-31T03:43:06;23.55;;;12.43;;
50803;SDS011;37205;51.434;6.756;2022-10-31T03:45:41;19.30;;;11.80;;
50803;SDS011;37205;51.434;6.756;2022-10-31T03:48:10;18.73;;;11.82;;
50803;SDS011;37205;51.434;6.756;2022-10-31T03:54:20;18.42;;;12.65;;
50803;SDS011;37205;51.434;6.756;2022-10-31T03:56:35;21.08;;;12.68;;
50803;SDS011;37205;51.434;6.756;2022-10-31T03:59:05;16.95;;;10.98;;
50803;SDS011;37205;51.434;6.756;2022-10-31T04:01:37;21.25;;;11.88;;
50803;SDS011;37205;51.434;6.756;2022-10-31T04:04:08;21.23;;;12.40;;
50803;SDS011;37205;51.434;6.756;2022-10-31T04:06:36;20.17;;;12.27;;
50803;SDS011;37205;51.434;6.756;2022-10-31T04:09:05;17.83;;;12.70;;
50803;SDS011;37205;51.434;6.756;2022-10-31T04:11:33;20.30;;;13.82;;
50803;SDS011;37205;51.434;6.756;2022-10-31T04:14:01;25.00;;;13.20;;
50803;SDS011;37205;51.434;6.756;2022-10-31T04:16:29;22.08;;;14.25;;
50803;SDS011;37205;51.434;6.756;2022-10-31T04:18:55;22.60;;;13.45;;
50803;SDS011;37205;51.434;6.756;2022-10-31T04:21:26;18.77;;;12.63;;
50803;SDS011;37205;51.434;6.756;2022-10-31T04:23:55;17.80;;;13.63;;
50803;SDS011;37205;51.434;6.756;2022-10-31T04:26:21;18.75;;;13.13;;
50803;SDS011;37205;51.434;6.756;2022-10-31T04:28:47;21.30;;;13.23;;
50803;SDS011;37205;51.434;6.756;2022-10-31T04:31:12;20.92;;;13.63;;
50803;SDS011;37205;51.434;6.756;2022-10-31T04:33:38;19.77;;;14.38;;
50803;SDS011;37205;51.434;6.756;2022-10-31T04:36:04;21.08;;;13.80;;
50803;SDS011;37205;51.434;6.756;2022-10-31T04:38:29;19.00;;;13.68;;
50803;SDS011;37205;51.434;6.756;2022-10-31T04:40:55;21.83;;;13.90;;
50803;SDS011;37205;51.434;6.756;2022-10-31T04:43:21;24.17;;;13.38;;
50803;SDS011;37205;51.434;6.756;2022-10-31T04:45:47;20.70;;;13.35;;
50803;SDS011;37205;51.434;6.756;2022-10-31T04:48:12;20.27;;;13.73;;
50803;SDS011;37205;51.434;6.756;2022-10-31T04:50:38;24.60;;;13.88;;
50803;SDS011;37205;51.434;6.756;2022-10-31T04:53:04;20.17;;;13.70;;
50803;SDS011;37205;51.434;6.756;2022-10-31T04:55:29;24.38;;;14.73;;
50803;SDS011;37205;51.434;6.756;2022-10-31T04:57:55;20.55;;;14.35;;
50803;SDS011;37205;51.434;6.756;2022-10-31T05:00:21;22.50;;;13.88;;
50803;SDS011;37205;51.434;6.756;2022-10-31T05:02:48;18.92;;;12.65;;
50803;SDS011;37205;51.434;6.756;2022-10-31T05:05:16;21.38;;;13.90;;
50803;SDS011;37205;51.434;6.756;2022-10-31T05:07:43;21.50;;;13.40;;
50803;SDS011;37205;51.434;6.756;2022-10-31T05:10:11;21.65;;;13.85;;
50803;SDS011;37205;51.434;6.756;2022-10-31T05:12:49;19.38;;;13.00;;
50803;SDS011;37205;51.434;6.756;2022-10-31T05:15:16;21.98;;;13.57;;
50803;SDS011;37205;51.434;6.756;2022-10-31T05:17:42;25.63;;;15.07;;
50803;SDS011;37205;51.434;6.756;2022-10-31T05:20:09;20.20;;;14.13;;
50803;SDS011;37205;51.434;6.756;2022-10-31T05:22:36;24.75;;;14.50;;
50803;SDS011;37205;51.434;6.756;2022-10-31T05:25:02;22.45;;;13.90;;
50803;SDS011;37205;51.434;6.756;2022-10-31T05:27:27;22.25;;;14.43;;
50803;SDS011;37205;51.434;6.756;2022-10-31T05:29:53;24.40;;;14.88;;
50803;SDS011;37205;51.434;6.756;2022-10-31T05:32:19;18.70;;;13.90;;
50803;SDS011;37205;51.434;6.756;2022-10-31T05:34:44;21.30;;;14.25;;
50803;SDS011;37205;51.434;6.756;2022-10-31T05:37:10;26.70;;;15.02;;
50803;SDS011;37205;51.434;6.756;2022-10-31T05:39:35;22.73;;;15.00;;
50803;SDS011;37205;51.434;6.756;2022-10-31T05:42:01;21.55;;;13.45;;
50803;SDS011;37205;51.434;6.756;2022-10-31T05:44:26;25.08;;;13.68;;
50803;SDS011;37205;51.434;6.756;2022-10-31T05:46:52;22.08;;;13.57;;
50803;SDS011;37205;51.434;6.756;2022-10-31T05:49:18;24.17;;;15.20;;
50803;SDS011;37205;51.434;6.756;2022-10-31T05:51:43;23.15;;;14.48;;
50803;SDS011;37205;51.434;6.756;2022-10-31T05:54:09;25.83;;;14.38;;
50803;SDS011;37205;51.434;6.756;2022-10-31T05:56:34;22.63;;;13.70;;
50803;SDS011;37205;51.434;6.756;2022-10-31T05:59:00;24.50;;;16.27;;
50803;SDS011;37205;51.434;6.756;2022-10-31T06:01:26;28.98;;;16.75;;
50803;SDS011;37205;51.434;6.756;2022-10-31T06:03:51;26.75;;;16.50;;
50803;SDS011;37205;51.434;6.756;2022-10-31T06:06:17;30.67;;;21.33;;
50803;SDS011;37205;51.434;6.756;2022-10-31T06:08:42;28.40;;;20.70;;
50803;SDS011;37205;51.434;6.756;2022-10-31T06:11:08;25.67;;;17.40;;
50803;SDS011;37205;51.434;6.756;2022-10-31T06:13:34;23.00;;;15.50;;
50803;SDS011;37205;51.434;6.756;2022-10-31T06:15:59;25.30;;;15.57;;
50803;SDS011;37205;51.434;6.756;2022-10-31T06:18:25;23.08;;;14.75;;
50803;SDS011;37205;51.434;6.756;2022-10-31T06:20:50;22.77;;;14.13;;
50803;SDS011;37205;51.434;6.756;2022-10-31T06:23:16;21.48;;;14.80;;
50803;SDS011;37205;51.434;6.756;2022-10-31T06:25:41;22.67;;;14.82;;
50803;SDS011;37205;51.434;6.756;2022-10-31T06:28:07;24.00;;;14.90;;
50803;SDS011;37205;51.434;6.756;2022-10-31T06:30:33;24.75;;;14.60;;
50803;SDS011;37205;51.434;6.756;2022-10-31T06:33:02;25.23;;;14.48;;
50803;SDS011;37205;51.434;6.756;2022-10-31T06:35:29;19.33;;;14.63;;
50803;SDS011;37205;51.434;6.756;2022-10-31T06:37:54;20.30;;;13.35;;
50803;SDS011;37205;51.434;6.756;2022-10-31T06:40:20;27.75;;;14.00;;
50803;SDS011;37205;51.434;6.756;2022-10-31T06:42:46;24.65;;;14.00;;
50803;SDS011;37205;51.434;6.756;2022-10-31T06:45:12;22.73;;;14.80;;
50803;SDS011;37205;51.434;6.756;2022-10-31T06:47:37;22.13;;;14.07;;
50803;SDS011;37205;51.434;6.756;2022-10-31T06:50:03;22.55;;;14.23;;
50803;SDS011;37205;51.434;6.756;2022-10-31T06:52:29;26.60;;;16.00;;
50803;SDS011;37205;51.434;6.756;2022-10-31T06:54:55;32.25;;;20.15;;
50803;SDS011;37205;51.434;6.756;2022-10-31T06:57:20;31.67;;;20.95;;
50803;SDS011;37205;51.434;6.756;2022-10-31T06:59:46;33.72;;;19.77;;
50803;SDS011;37205;51.434;6.756;2022-10-31T07:02:12;31.83;;;17.83;;
50803;SDS011;37205;51.434;6.756;2022-10-31T07:04:37;21.10;;;14.48;;
50803;SDS011;37205;51.434;6.756;2022-10-31T07:07:03;25.77;;;15.60;;
50803;SDS011;37205;51.434;6.756;2022-10-31T07:09:28;19.67;;;14.00;;
50803;SDS011;37205;51.434;6.756;2022-10-31T07:11:54;23.80;;;15.05;;
50803;SDS011;37205;51.434;6.756;2022-10-31T07:14:19;26.95;;;16.08;;
50803;SDS011;37205;51.434;6.756;2022-10-31T07:16:48;21.70;;;14.38;;
50803;SDS011;37205;51.434;6.756;2022-10-31T07:19:15;24.23;;;14.88;;
50803;SDS011;37205;51.434;6.756;2022-10-31T07:21:41;23.58;;;15.18;;
50803;SDS011;37205;51.434;6.756;2022-10-31T07:24:06;20.70;;;14.65;;
50803;SDS011;37205;51.434;6.756;2022-10-31T07:26:32;24.63;;;15.55;;
50803;SDS011;37205;51.434;6.756;2022-10-31T07:28:58;27.60;;;15.25;;
50803;SDS011;37205;51.434;6.756;2022-10-31T07:31:24;24.63;;;15.38;;
50803;SDS011;37205;51.434;6.756;2022-10-31T07:33:50;24.40;;;16.45;;
50803;SDS011;37205;51.434;6.756;2022-10-31T07:36:16;24.65;;;16.02;;
50803;SDS011;37205;51.434;6.756;2022-10-31T07:38:41;21.63;;;15.50;;
50803;SDS011;37205;51.434;6.756;2022-10-31T07:41:07;25.95;;;15.18;;
50803;SDS011;37205;51.434;6.756;2022-10-31T07:43:35;23.23;;;16.10;;
50803;SDS011;37205;51.434;6.756;2022-10-31T07:46:00;26.13;;;16.55;;
50803;SDS011;37205;51.434;6.756;2022-10-31T07:48:26;24.15;;;16.20;;
50803;SDS011;37205;51.434;6.756;2022-10-31T07:50:52;24.77;;;16.23;;
50803;SDS011;37205;51.434;6.756;2022-10-31T07:53:17;26.30;;;16.90;;
50803;SDS011;37205;51.434;6.756;2022-10-31T07:55:43;23.23;;;15.75;;
50803;SDS011;37205;51.434;6.756;2022-10-31T08:00:39;26.20;;;16.35;;
50803;SDS011;37205;51.434;6.756;2022-10-31T08:03:06;26.73;;;17.02;;
50803;SDS011;37205;51.434;6.756;2022-10-31T08:05:34;22.23;;;15.38;;
50803;SDS011;37205;51.434;6.756;2022-10-31T08:08:00;23.38;;;15.05;;
50803;SDS011;37205;51.434;6.756;2022-10-31T08:10:26;23.42;;;15.13;;
50803;SDS011;37205;51.434;6.756;2022-10-31T08:13:11;24.63;;;15.57;;
50803;SDS011;37205;51.434;6.756;2022-10-31T08:15:38;26.13;;;16.17;;
50803;SDS011;37205;51.434;6.756;2022-10-31T08:18:06;22.58;;;15.15;;
50803;SDS011;37205;51.434;6.756;2022-10-31T08:20:36;23.73;;;16.05;;
50803;SDS011;37205;51.434;6.756;2022-10-31T08:23:02;23.33;;;16.95;;
50803;SDS011;37205;51.434;6.756;2022-10-31T08:25:30;25.02;;;16.45;;
50803;SDS011;37205;51.434;6.756;2022-10-31T08:27:58;22.33;;;14.38;;
50803;SDS011;37205;51.434;6.756;2022-10-31T08:30:25;25.38;;;16.83;;
50803;SDS011;37205;51.434;6.756;2022-10-31T08:35:40;25.20;;;16.40;;
50803;SDS011;37205;51.434;6.756;2022-10-31T08:38:06;26.75;;;17.00;;
50803;SDS011;37205;51.434;6.756;2022-10-31T08:40:33;29.08;;;18.00;;
50803;SDS011;37205;51.434;6.756;2022-10-31T08:43:01;27.92;;;18.83;;
50803;SDS011;37205;51.434;6.756;2022-10-31T08:45:29;28.30;;;18.27;;
50803;SDS011;37205;51.434;6.756;2022-10-31T08:47:57;29.05;;;18.85;;
50803;SDS011;37205;51.434;6.756;2022-10-31T08:50:23;31.38;;;19.35;;
50803;SDS011;37205;51.434;6.756;2022-10-31T08:52:49;26.52;;;18.17;;
50803;SDS011;37205;51.434;6.756;2022-10-31T08:55:15;26.02;;;17.85;;
50803;SDS011;37205;51.434;6.756;2022-10-31T08:57:41;27.23;;;18.42;;
50803;SDS011;37205;51.434;6.756;2022-10-31T09:00:06;27.15;;;18.45;;
50803;SDS011;37205;51.434;6.756;2022-10-31T09:02:32;30.98;;;19.25;;
50803;SDS011;37205;51.434;6.756;2022-10-31T09:04:58;30.48;;;19.63;;
50803;SDS011;37205;51.434;6.756;2022-10-31T09:07:23;29.08;;;18.70;;
50803;SDS011;37205;51.434;6.756;2022-10-31T09:09:49;28.83;;;18.92;;
50803;SDS011;37205;51.434;6.756;2022-10-31T09:12:15;29.92;;;19.85;;
50803;SDS011;37205;51.434;6.756;2022-10-31T09:14:40;30.05;;;20.02;;
50803;SDS011;37205;51.434;6.756;2022-10-31T09:17:06;31.48;;;20.20;;
50803;SDS011;37205;51.434;6.756;2022-10-31T09:19:31;32.72;;;19.83;;
50803;SDS011;37205;51.434;6.756;2022-10-31T09:21:57;33.22;;;21.30;;
50803;SDS011;37205;51.434;6.756;2022-10-31T09:24:22;36.78;;;22.08;;
50803;SDS011;37205;51.434;6.756;2022-10-31T09:26:48;37.83;;;23.02;;
50803;SDS011;37205;51.434;6.756;2022-10-31T09:29:14;34.47;;;21.52;;
50803;SDS011;37205;51.434;6.756;2022-10-31T09:31:39;35.33;;;21.95;;
50803;SDS011;37205;51.434;6.756;2022-10-31T09:34:05;32.60;;;22.23;;
50803;SDS011;37205;51.434;6.756;2022-10-31T09:36:30;38.72;;;23.30;;
50803;SDS011;37205;51.434;6.756;2022-10-31T09:38:56;29.80;;;20.30;;
50803;SDS011;37205;51.434;6.756;2022-10-31T09:41:26;32.58;;;21.33;;
50803;SDS011;37205;51.434;6.756;2022-10-31T09:44:18;25.40;;;18.48;;
50803;SDS011;37205;51.434;6.756;2022-10-31T09:47:05;32.33;;;19.23;;
50803;SDS011;37205;51.434;6.756;2022-10-31T09:52:17;29.73;;;18.13;;
50803;SDS011;37205;51.434;6.756;2022-10-31T09:57:22;26.92;;;17.75;;
50803;SDS011;37205;51.434;6.756;2022-10-31T09:59:53;26.90;;;17.50;;
50803;SDS011;37205;51.434;6.756;2022-10-31T10:02:39;28.30;;;18.05;;
50803;SDS011;37205;51.434;6.756;2022-10-31T10:05:10;32.42;;;18.35;;
50803;SDS011;37205;51.434;6.756;2022-10-31T10:07:41;25.65;;;18.50;;
50803;SDS011;37205;51.434;6.756;2022-10-31T10:32:11;33.92;;;21.90;;
50803;SDS011;37205;51.434;6.756;2022-10-31T10:34:54;38.13;;;22.73;;
50803;SDS011;37205;51.434;6.756;2022-10-31T10:37:49;35.17;;;22.77;;
50803;SDS011;37205;51.434;6.756;2022-10-31T10:40:19;40.25;;;25.88;;
50803;SDS011;37205;51.434;6.756;2022-10-31T10:42:55;39.05;;;24.15;;
50803;SDS011;37205;51.434;6.756;2022-10-31T10:45:49;45.70;;;24.52;;
50803;SDS011;37205;51.434;6.756;2022-10-31T10:48:44;32.40;;;23.77;;
50803;SDS011;37205;51.434;6.756;2022-10-31T10:51:23;36.72;;;22.75;;
50803;SDS011;37205;51.434;6.756;2022-10-31T10:54:09;39.30;;;23.20;;
50803;SDS011;37205;51.434;6.756;2022-10-31T10:57:20;38.00;;;23.08;;
50803;SDS011;37205;51.434;6.756;2022-10-31T10:59:52;40.67;;;23.42;;
50803;SDS011;37205;51.434;6.756;2022-10-31T11:04:47;34.60;;;22.75;;
50803;SDS011;37205;51.434;6.756;2022-10-31T11:07:16;35.83;;;23.00;;
50803;SDS011;37205;51.434;6.756;2022-10-31T11:09:42;37.22;;;22.40;;
50803;SDS011;37205;51.434;6.756;2022-10-31T11:12:09;33.95;;;22.70;;
50803;SDS011;37205;51.434;6.756;2022-10-31T11:14:46;32.63;;;21.88;;
50803;SDS011;37205;51.434;6.756;2022-10-31T11:17:20;33.85;;;21.73;;
50803;SDS011;37205;51.434;6.756;2022-10-31T11:20:20;30.17;;;20.02;;
50803;SDS011;37205;51.434;6.756;2022-10-31T11:23:10;37.42;;;21.95;;
50803;SDS011;37205;51.434;6.756;2022-10-31T11:25:48;33.00;;;20.95;;
50803;SDS011;37205;51.434;6.756;2022-10-31T11:28:21;32.40;;;21.15;;
50803;SDS011;37205;51.434;6.756;2022-10-31T11:36:16;30.27;;;20.25;;
50803;SDS011;37205;51.434;6.756;2022-10-31T11:38:48;29.33;;;19.05;;
50803;SDS011;37205;51.434;6.756;2022-10-31T11:41:15;26.30;;;18.25;;
50803;SDS011;37205;51.434;6.756;2022-10-31T11:43:59;31.50;;;18.63;;
50803;SDS011;37205;51.434;6.756;2022-10-31T11:52:02;27.87;;;17.27;;
50803;SDS011;37205;51.434;6.756;2022-10-31T11:55:00;25.98;;;15.80;;
50803;SDS011;37205;51.434;6.756;2022-10-31T11:57:48;24.45;;;14.77;;
50803;SDS011;37205;51.434;6.756;2022-10-31T12:05:49;25.83;;;14.63;;
50803;SDS011;37205;51.434;6.756;2022-10-31T12:08:29;22.60;;;13.95;;
50803;SDS011;37205;51.434;6.756;2022-10-31T12:13:37;20.23;;;13.77;;
50803;SDS011;37205;51.434;6.756;2022-10-31T12:16:24;19.83;;;13.52;;
50803;SDS011;37205;51.434;6.756;2022-10-31T12:19:01;21.23;;;13.43;;
50803;SDS011;37205;51.434;6.756;2022-10-31T12:30:00;19.38;;;11.55;;
50803;SDS011;37205;51.434;6.756;2022-10-31T12:32:58;16.92;;;10.13;;
50803;SDS011;37205;51.434;6.756;2022-10-31T12:35:40;18.95;;;10.95;;
50803;SDS011;37205;51.434;6.756;2022-10-31T12:41:31;16.13;;;10.05;;
50803;SDS011;37205;51.434;6.756;2022-10-31T12:44:22;14.63;;;9.25;;
50803;SDS011;37205;51.434;6.756;2022-10-31T12:50:10;14.85;;;8.75;;
50803;SDS011;37205;51.434;6.756;2022-10-31T13:01:08;16.25;;;9.27;;
50803;SDS011;37205;51.434;6.756;2022-10-31T13:04:15;16.33;;;8.70;;
50803;SDS011;37205;51.434;6.756;2022-10-31T13:07:01;17.45;;;9.95;;
50803;SDS011;37205;51.434;6.756;2022-10-31T13:09:45;16.95;;;9.10;;
50803;SDS011;37205;51.434;6.756;2022-10-31T13:12:25;15.70;;;7.97;;
50803;SDS011;37205;51.434;6.756;2022-10-31T13:14:55;14.05;;;8.38;;
50803;SDS011;37205;51.434;6.756;2022-10-31T13:17:27;11.38;;;8.18;;
50803;SDS011;37205;51.434;6.756;2022-10-31T13:23:10;12.82;;;8.35;;
50803;SDS011;37205;51.434;6.756;2022-10-31T13:25:47;16.67;;;9.57;;
50803;SDS011;37205;51.434;6.756;2022-10-31T13:28:31;14.63;;;8.50;;
50803;SDS011;37205;51.434;6.756;2022-10-31T13:31:05;16.45;;;9.10;;
50803;SDS011;37205;51.434;6.756;2022-10-31T13:33:35;14.90;;;8.48;;
50803;SDS011;37205;51.434;6.756;2022-10-31T13:44:25;12.70;;;8.27;;
50803;SDS011;37205;51.434;6.756;2022-10-31T13:46:53;14.85;;;7.32;;
50803;SDS011;37205;51.434;6.756;2022-10-31T13:54:36;11.77;;;5.63;;
50803;SDS011;37205;51.434;6.756;2022-10-31T13:57:06;10.60;;;5.15;;
50803;SDS011;37205;51.434;6.756;2022-10-31T13:59:50;9.75;;;4.70;;
50803;SDS011;37205;51.434;6.756;2022-10-31T14:02:21;11.90;;;5.00;;
50803;SDS011;37205;51.434;6.756;2022-10-31T14:07:21;11.43;;;5.13;;
50803;SDS011;37205;51.434;6.756;2022-10-31T14:12:31;10.23;;;4.90;;
50803;SDS011;37205;51.434;6.756;2022-10-31T14:15:02;9.10;;;4.70;;
50803;SDS011;37205;51.434;6.756;2022-10-31T14:17:51;12.00;;;5.90;;
50803;SDS011;37205;51.434;6.756;2022-10-31T14:20:40;9.27;;;4.88;;
50803;SDS011;37205;51.434;6.756;2022-10-31T14:23:10;10.57;;;4.78;;
50803;SDS011;37205;51.434;6.756;2022-10-31T14:26:05;12.57;;;5.25;;
50803;SDS011;37205;51.434;6.756;2022-10-31T14:28:52;10.40;;;4.93;;
50803;SDS011;37205;51.434;6.756;2022-10-31T14:31:35;14.80;;;8.60;;
50803;SDS011;37205;51.434;6.756;2022-10-31T14:36:56;9.98;;;5.50;;
50803;SDS011;37205;51.434;6.756;2022-10-31T14:43:19;11.55;;;4.50;;
50803;SDS011;37205;51.434;6.756;2022-10-31T14:48:37;12.90;;;4.82;;
50803;SDS011;37205;51.434;6.756;2022-10-31T14:51:21;10.10;;;4.70;;
50803;SDS011;37205;51.434;6.756;2022-10-31T14:53:49;11.75;;;5.07;;
50803;SDS011;37205;51.434;6.756;2022-10-31T14:56:19;13.05;;;5.43;;
50803;SDS011;37205;51.434;6.756;2022-10-31T14:58:49;13.98;;;4.93;;
50803;SDS011;37205;51.434;6.756;2022-10-31T15:01:20;12.07;;;5.10;;
50803;SDS011;37205;51.434;6.756;2022-10-31T15:03:53;10.80;;;5.10;;
50803;SDS011;37205;51.434;6.756;2022-10-31T15:06:23;10.07;;;5.07;;
50803;SDS011;37205;51.434;6.756;2022-10-31T15:08:50;14.90;;;5.40;;
50803;SDS011;37205;51.434;6.756;2022-10-31T15:13:49;16.80;;;5.47;;
50803;SDS011;37205;51.434;6.756;2022-10-31T15:16:40;9.30;;;4.45;;
50803;SDS011;37205;51.434;6.756;2022-10-31T15:19:25;10.82;;;4.40;;
50803;SDS011;37205;51.434;6.756;2022-10-31T15:21:53;13.80;;;4.90;;
50803;SDS011;37205;51.434;6.756;2022-10-31T15:24:24;13.35;;;5.18;;
50803;SDS011;37205;51.434;6.756;2022-10-31T15:27:05;11.82;;;4.60;;
50803;SDS011;37205;51.434;6.756;2022-10-31T15:29:35;12.43;;;4.82;;
50803;SDS011;37205;51.434;6.756;2022-10-31T15:32:09;9.27;;;4.53;;
50803;SDS011;37205;51.434;6.756;2022-10-31T15:34:51;11.98;;;5.22;;
50803;SDS011;37205;51.434;6.756;2022-10-31T15:37:19;12.48;;;5.55;;
50803;SDS011;37205;51.434;6.756;2022-10-31T15:39:47;12.00;;;4.88;;
50803;SDS011;37205;51.434;6.756;2022-10-31T15:42:18;10.75;;;5.22;;
50803;SDS011;37205;51.434;6.756;2022-10-31T15:45:31;14.23;;;4.93;;
50803;SDS011;37205;51.434;6.756;2022-10-31T15:47:37;10.93;;;5.25;;
50803;SDS011;37205;51.434;6.756;2022-10-31T15:50:05;9.85;;;4.97;;
50803;SDS011;37205;51.434;6.756;2022-10-31T15:52:49;13.15;;;7.30;;
50803;SDS011;37205;51.434;6.756;2022-10-31T15:57:42;21.30;;;9.30;;
50803;SDS011;37205;51.434;6.756;2022-10-31T16:03:01;11.80;;;5.28;;
50803;SDS011;37205;51.434;6.756;2022-10-31T16:13:36;12.07;;;5.43;;
50803;SDS011;37205;51.434;6.756;2022-10-31T16:16:13;9.52;;;5.70;;
50803;SDS011;37205;51.434;6.756;2022-10-31T16:18:41;14.95;;;5.40;;
50803;SDS011;37205;51.434;6.756;2022-10-31T16:21:08;12.80;;;5.88;;
50803;SDS011;37205;51.434;6.756;2022-10-31T16:23:34;14.35;;;5.85;;
50803;SDS011;37205;51.434;6.756;2022-10-31T16:26:06;11.70;;;5.68;;
50803;SDS011;37205;51.434;6.756;2022-10-31T16:28:32;11.77;;;5.53;;
50803;SDS011;37205;51.434;6.756;2022-10-31T16:30:59;14.70;;;5.97;;
50803;SDS011;37205;51.434;6.756;2022-10-31T16:36:13;13.93;;;5.65;;
50803;SDS011;37205;51.434;6.756;2022-10-31T16:38:52;10.63;;;5.00;;
50803;SDS011;37205;51.434;6.756;2022-10-31T16:41:19;13.70;;;6.40;;
50803;SDS011;37205;51.434;6.756;2022-10-31T16:43:45;9.73;;;5.35;;
50803;SDS011;37205;51.434;6.756;2022-10-31T16:46:18;11.77;;;5.70;;
50803;SDS011;37205;51.434;6.756;2022-10-31T16:48:48;14.90;;;6.40;;
50803;SDS011;37205;51.434;6.756;2022-10-31T16:51:13;10.98;;;5.10;;
50803;SDS011;37205;51.434;6.756;2022-10-31T16:53:39;14.55;;;5.88;;
50803;SDS011;37205;51.434;6.756;2022-10-31T16:56:04;11.77;;;5.25;;
50803;SDS011;37205;51.434;6.756;2022-10-31T16:58:36;15.88;;;8.43;;
50803;SDS011;37205;51.434;6.756;2022-10-31T17:01:03;27.67;;;19.00;;
50803;SDS011;37205;51.434;6.756;2022-10-31T17:03:31;14.20;;;6.80;;
50803;SDS011;37205;51.434;6.756;2022-10-31T17:05:56;12.23;;;6.75;;
50803;SDS011;37205;51.434;6.756;2022-10-31T17:08:22;14.07;;;7.28;;
50803;SDS011;37205;51.434;6.756;2022-10-31T17:10:52;14.13;;;5.95;;
50803;SDS011;37205;51.434;6.756;2022-10-31T17:13:20;16.90;;;6.10;;
50803;SDS011;37205;51.434;6.756;2022-10-31T17:15:49;17.05;;;10.25;;
50803;SDS011;37205;51.434;6.756;2022-10-31T17:18:16;15.30;;;9.13;;
50803;SDS011;37205;51.434;6.756;2022-10-31T17:20:42;15.40;;;8.07;;
50803;SDS011;37205;51.434;6.756;2022-10-31T17:23:09;13.35;;;7.38;;
50803;SDS011;37205;51.434;6.756;2022-10-31T17:25:37;13.70;;;6.80;;
50803;SDS011;37205;51.434;6.756;2022-10-31T17:28:03;13.07;;;7.38;;
50803;SDS011;37205;51.434;6.756;2022-10-31T17:30:28;13.35;;;7.03;;
50803;SDS011;37205;51.434;6.756;2022-10-31T17:32:55;11.40;;;5.88;;